Time;durP1;ratioP1;P1;durP2;ratioP2;P2;SDS_P1;SDS_P2;PMS_P1;PMS_P2;Temp;Humidity;BMP_temperature;BMP_pressure;BME280_temperature;BME280_humidity;BME280_pressure;Samples;Min_cycle;Max_cycle;Signal;HPM_P1;HPM_P2
2023/04/17 00:03:57;;;;;;;2.77;2.57;;;11.50;41.30;;;;;;10340973;28;20234;-79
2023/04/17 00:09:01;;;;;;;2.60;2.40;;;11.40;41.20;;;;;;10345084;28;20774;-79
2023/04/17 00:14:06;;;;;;;3.03;2.53;;;11.40;41.20;;;;;;10338632;28;20230;-79
2023/04/17 00:19:09;;;;;;;2.10;2.00;;;11.40;41.20;;;;;;10351380;28;20591;-78
2023/04/17 00:24:13;;;;;;;2.93;2.73;;;11.40;41.20;;;;;;10343659;28;20237;-79
2023/04/17 00:29:18;;;;;;;3.30;2.50;;;11.30;41.10;;;;;;10336022;28;20241;-79
2023/04/17 00:34:22;;;;;;;2.60;2.40;;;11.30;41.10;;;;;;10343026;28;20692;-79
2023/04/17 00:39:25;;;;;;;2.90;2.57;;;11.20;41.00;;;;;;10343614;28;20258;-79
2023/04/17 00:44:30;;;;;;;2.80;2.60;;;11.20;41.00;;;;;;10349331;28;20600;-79
2023/04/17 00:49:33;;;;;;;3.00;2.63;;;11.20;41.70;;;;;;10346822;28;20688;-79
2023/04/17 00:54:37;;;;;;;2.90;2.60;;;11.10;40.90;;;;;;10349748;28;20227;-79
2023/04/17 00:59:46;;;;;;;3.20;3.00;;;11.10;40.90;;;;;;10349328;28;20222;-79
2023/04/17 01:04:49;;;;;;;3.50;3.20;;;11.00;41.40;;;;;;10347352;28;20230;-79
2023/04/17 01:09:55;;;;;;;2.80;2.60;;;11.00;40.90;;;;;;10340532;28;20556;-79
2023/04/17 01:15:02;;;;;;;3.20;3.00;;;11.00;41.20;;;;;;10350734;28;20226;-79
2023/04/17 01:20:06;;;;;;;3.67;3.30;;;10.90;41.60;;;;;;10339215;28;20227;-79
2023/04/17 01:25:14;;;;;;;3.50;3.20;;;10.90;41.40;;;;;;10349107;28;20226;-79
2023/04/17 01:30:17;;;;;;;2.70;2.50;;;11.00;41.70;;;;;;10346525;28;20699;-79
2023/04/17 01:35:20;;;;;;;3.37;3.17;;;11.00;41.50;;;;;;10350361;28;20266;-79
2023/04/17 01:40:25;;;;;;;3.93;3.63;;;11.00;41.60;;;;;;10354473;28;20987;-79
2023/04/17 01:45:28;;;;;;;3.67;3.47;;;11.00;41.60;;;;;;10351340;28;20235;-79
2023/04/17 01:50:33;;;;;;;4.00;3.70;;;11.00;41.10;;;;;;10351762;28;20223;-79
2023/04/17 01:55:38;;;;;;;4.83;4.10;;;11.00;41.40;;;;;;10347109;28;20242;-79
2023/04/17 02:00:41;;;;;;;3.93;3.63;;;10.90;41.40;;;;;;10349070;28;20233;-79
2023/04/17 02:05:46;;;;;;;3.97;3.67;;;10.90;41.30;;;;;;10344140;28;20255;-79
2023/04/17 02:10:51;;;;;;;3.67;3.47;;;10.90;41.50;;;;;;10347381;28;20269;-79
2023/04/17 02:15:55;;;;;;;4.00;3.70;;;10.90;41.60;;;;;;10350739;28;20341;-79
2023/04/17 02:20:59;;;;;;;3.50;3.30;;;10.90;41.40;;;;;;10347188;28;20233;-79
2023/04/17 02:26:04;;;;;;;3.83;3.53;;;10.90;41.30;;;;;;10351729;28;20226;-78
2023/04/17 02:31:08;;;;;;;4.07;3.70;;;10.90;41.10;;;;;;10351341;28;20225;-79
2023/04/17 02:36:11;;;;;;;3.97;3.67;;;10.80;40.70;;;;;;10347468;28;20241;-79
2023/04/17 02:41:16;;;;;;;3.37;3.17;;;10.80;40.70;;;;;;10351579;28;20234;-80
2023/04/17 02:46:19;;;;;;;3.90;3.60;;;10.80;40.80;;;;;;10349044;28;20746;-79
2023/04/17 02:51:23;;;;;;;2.97;2.77;;;10.80;40.60;;;;;;10348534;28;20322;-79
2023/04/17 02:56:28;;;;;;;3.67;3.37;;;10.70;40.50;;;;;;10350447;28;20593;-79
2023/04/17 03:01:32;;;;;;;3.80;3.50;;;10.70;40.60;;;;;;10345277;28;20298;-79
2023/04/17 03:06:36;;;;;;;4.10;3.80;;;10.70;40.50;;;;;;10350491;28;20230;-79
2023/04/17 03:11:41;;;;;;;3.33;3.13;;;10.60;40.50;;;;;;10348204;28;20818;-79
2023/04/17 03:16:44;;;;;;;2.83;2.63;;;10.50;40.80;;;;;;10347120;28;20684;-79
2023/04/17 03:21:48;;;;;;;3.77;3.37;;;10.50;40.80;;;;;;10350864;28;20257;-79
2023/04/17 03:26:56;;;;;;;3.40;3.20;;;10.40;40.80;;;;;;10348151;28;20232;-79
2023/04/17 03:31:59;;;;;;;3.43;3.20;;;10.40;41.00;;;;;;10345749;28;20226;-79
2023/04/17 03:37:02;;;;;;;3.97;3.67;;;10.40;40.90;;;;;;10349406;28;20651;-79
2023/04/17 03:42:13;;;;;;;4.43;4.13;;;10.20;40.90;;;;;;10349211;28;20227;-79
2023/04/17 03:47:17;;;;;;;4.17;3.87;;;10.30;41.20;;;;;;10354823;28;20230;-79
2023/04/17 03:52:20;;;;;;;4.57;4.17;;;10.10;41.20;;;;;;10346981;28;20601;-79
2023/04/17 03:57:25;;;;;;;3.77;3.47;;;10.10;41.40;;;;;;10347684;28;20615;-79
2023/04/17 04:02:30;;;;;;;3.87;3.57;;;10.10;41.80;;;;;;10345094;28;20230;-79
2023/04/17 04:07:34;;;;;;;3.33;3.13;;;10.10;41.90;;;;;;10350938;28;20223;-79
2023/04/17 04:12:38;;;;;;;3.80;3.60;;;10.10;41.90;;;;;;10347050;28;20330;-79
2023/04/17 04:17:42;;;;;;;3.60;3.30;;;10.10;42.20;;;;;;10352253;28;20241;-79
2023/04/17 04:22:47;;;;;;;3.97;3.70;;;10.20;42.00;;;;;;10353200;28;20230;-81
2023/04/17 04:27:55;;;;;;;4.33;3.93;;;10.20;42.00;;;;;;10350872;28;20230;-79
2023/04/17 04:32:59;;;;;;;4.17;3.87;;;10.20;42.50;;;;;;10339652;28;20249;-79
2023/04/17 04:38:03;;;;;;;4.07;3.77;;;10.30;42.20;;;;;;10331072;28;20234;-81
2023/04/17 04:43:08;;;;;;;5.10;4.60;;;10.30;42.20;;;;;;10343866;28;20235;-78
2023/04/17 04:48:11;;;;;;;4.53;4.13;;;10.40;42.50;;;;;;10338032;28;20234;-81
2023/04/17 04:53:14;;;;;;;4.80;4.40;;;10.40;42.30;;;;;;10336768;28;20226;-79
2023/04/17 04:58:19;;;;;;;4.10;3.80;;;10.40;42.40;;;;;;10335051;28;20229;-78
2023/04/17 05:03:22;;;;;;;5.47;4.87;;;10.40;42.60;;;;;;10340411;28;20253;-78
2023/04/17 05:08:26;;;;;;;5.70;5.20;;;10.50;42.50;;;;;;10335736;28;20237;-78
2023/04/17 05:13:30;;;;;;;6.63;6.10;;;10.50;42.50;;;;;;10334453;28;20230;-79
2023/04/17 05:18:33;;;;;;;5.00;4.60;;;10.50;42.80;;;;;;10330985;28;20715;-79
2023/04/17 05:23:36;;;;;;;6.40;5.90;;;10.50;42.80;;;;;;10342633;28;20230;-75
2023/04/17 05:28:44;;;;;;;4.80;4.40;;;10.50;42.90;;;;;;10332415;28;20242;-78
2023/04/17 05:33:47;;;;;;;5.07;4.53;;;10.60;43.30;;;;;;10336697;28;20223;-78
2023/04/17 05:38:50;;;;;;;5.40;4.90;;;10.70;43.20;;;;;;10337324;28;20246;-79
2023/04/17 05:43:55;;;;;;;5.43;5.00;;;10.70;43.30;;;;;;10337237;28;20257;-78
2023/04/17 05:48:58;;;;;;;5.33;4.93;;;10.80;43.70;;;;;;10338753;28;20230;-78
2023/04/17 05:54:02;;;;;;;4.50;4.20;;;10.90;43.50;;;;;;10337755;28;20249;-78
2023/04/17 05:59:06;;;;;;;4.90;4.50;;;10.90;43.70;;;;;;10335141;28;20238;-78
2023/04/17 06:04:12;;;;;;;4.53;4.23;;;11.00;44.10;;;;;;10338882;28;20230;-78
2023/04/17 06:09:17;;;;;;;4.63;4.23;;;11.00;43.70;;;;;;10331171;28;20237;-78
2023/04/17 06:14:21;;;;;;;4.97;4.57;;;11.00;43.70;;;;;;10329603;28;20595;-77
2023/04/17 06:19:24;;;;;;;5.00;4.60;;;11.20;44.30;;;;;;10325384;28;20227;-73
2023/04/17 06:24:28;;;;;;;4.20;3.90;;;11.20;44.00;;;;;;10331523;28;20227;-73
2023/04/17 06:29:32;;;;;;;4.27;3.97;;;11.20;44.00;;;;;;10325611;28;20233;-73
2023/04/17 06:34:35;;;;;;;4.27;3.97;;;11.30;44.50;;;;;;10333330;28;20582;-73
2023/04/17 06:39:48;;;;;;;4.27;3.97;;;11.30;44.10;;;;;;10335083;28;20734;-73
2023/04/17 06:44:53;;;;;;;5.13;4.73;;;11.40;44.30;;;;;;10332718;28;20994;-73
2023/04/17 06:49:58;;;;;;;5.37;4.97;;;11.40;44.60;;;;;;10333191;28;20226;-73
2023/04/17 06:55:01;;;;;;;5.00;4.60;;;11.50;44.40;;;;;;10330920;28;20230;-73
2023/04/17 07:00:11;;;;;;;5.60;4.90;;;11.60;44.50;;;;;;10330507;28;20222;-73
2023/04/17 07:05:14;;;;;;;5.20;4.80;;;11.70;45.10;;;;;;10331349;28;20781;-73
2023/04/17 07:10:18;;;;;;;5.07;4.77;;;11.80;44.50;;;;;;10331657;28;20226;-73
2023/04/17 07:15:22;;;;;;;4.83;4.50;;;11.90;44.40;;;;;;10332322;28;24966;-73
2023/04/17 07:20:26;;;;;;;5.80;5.40;;;12.00;44.50;;;;;;10328941;28;20229;-73
2023/04/17 07:25:29;;;;;;;5.37;4.97;;;12.10;44.00;;;;;;10327362;28;20230;-73
2023/04/17 07:30:34;;;;;;;5.13;4.73;;;12.20;44.10;;;;;;10331384;28;20305;-73
2023/04/17 07:35:38;;;;;;;6.53;6.03;;;12.20;44.30;;;;;;10333781;28;20673;-73
2023/04/17 07:40:41;;;;;;;5.57;5.17;;;12.40;44.30;;;;;;10329559;28;20231;-73
2023/04/17 07:45:46;;;;;;;6.07;5.60;;;12.50;44.10;;;;;;10334593;28;20233;-73
2023/04/17 07:50:49;;;;;;;5.90;5.50;;;12.60;44.00;;;;;;10333026;28;20233;-73
2023/04/17 07:55:53;;;;;;;6.10;5.50;;;12.70;43.80;;;;;;10339444;28;20674;-74
2023/04/17 08:00:58;;;;;;;6.30;5.90;;;12.80;43.90;;;;;;10336461;28;20234;-74
2023/04/17 08:06:01;;;;;;;6.50;6.10;;;12.90;43.60;;;;;;10337754;28;20722;-73
2023/04/17 08:11:04;;;;;;;5.93;5.53;;;13.00;43.90;;;;;;10341060;28;20218;-72
2023/04/17 08:16:09;;;;;;;5.90;5.50;;;13.10;43.80;;;;;;10334847;28;20239;-73
2023/04/17 08:21:13;;;;;;;6.97;6.37;;;13.30;43.90;;;;;;10334213;28;20282;-73
2023/04/17 08:26:17;;;;;;;6.17;5.67;;;13.40;44.00;;;;;;10337094;28;20711;-73
2023/04/17 08:31:22;;;;;;;6.10;5.67;;;13.60;44.20;;;;;;10336249;28;20229;-73
2023/04/17 08:36:26;;;;;;;5.50;5.10;;;13.90;44.10;;;;;;10339345;28;20255;-73
2023/04/17 08:41:36;;;;;;;5.53;5.13;;;14.10;43.60;;;;;;10339313;28;20227;-73
2023/04/17 08:46:41;;;;;;;5.67;5.20;;;14.30;43.70;;;;;;10335236;28;20230;-73
2023/04/17 08:51:45;;;;;;;5.17;4.77;;;14.50;43.90;;;;;;10333830;28;20620;-74
2023/04/17 08:56:49;;;;;;;5.07;4.70;;;14.70;44.10;;;;;;10333408;28;20239;-73
2023/04/17 09:02:03;;;;;;;5.10;4.70;;;15.00;43.60;;;;;;10338577;28;20229;-73
2023/04/17 09:07:08;;;;;;;5.00;4.60;;;15.20;42.40;;;;;;10330804;28;20281;-73
2023/04/17 09:12:11;;;;;;;5.17;4.77;;;15.40;42.60;;;;;;10331596;28;20227;-73
2023/04/17 09:17:17;;;;;;;4.47;4.17;;;15.50;42.50;;;;;;10331184;28;20238;-73
2023/04/17 09:22:21;;;;;;;5.13;4.73;;;15.70;41.90;;;;;;10333064;28;20230;-73
2023/04/17 09:27:26;;;;;;;5.40;5.00;;;15.90;42.20;;;;;;10332082;28;20245;-73
2023/04/17 09:32:32;;;;;;;5.10;4.80;;;16.00;42.00;;;;;;10334350;28;20223;-73
2023/04/17 09:37:49;;;;;;;5.30;4.90;;;16.10;41.90;;;;;;10334782;28;20231;-73
2023/04/17 09:42:57;;;;;;;5.03;4.73;;;16.30;41.00;;;;;;10336381;28;20227;-73
2023/04/17 09:48:04;;;;;;;6.00;5.50;;;16.40;40.50;;;;;;10337704;28;20296;-74
2023/04/17 09:53:08;;;;;;;5.27;4.87;;;16.50;41.00;;;;;;10333018;28;20223;-73
2023/04/17 09:58:12;;;;;;;5.00;4.70;;;16.50;41.10;;;;;;10329996;28;20229;-73
2023/04/17 10:03:17;;;;;;;4.67;4.37;;;16.50;40.90;;;;;;10337800;28;20226;-74
2023/04/17 10:08:20;;;;;;;4.63;4.33;;;16.50;40.30;;;;;;10336617;28;20247;-73
2023/04/17 10:13:28;;;;;;;5.13;4.77;;;16.60;40.70;;;;;;10332089;28;20246;-73
2023/04/17 10:18:33;;;;;;;5.50;5.00;;;16.60;39.70;;;;;;10335455;28;20237;-73
2023/04/17 10:23:37;;;;;;;5.00;4.70;;;16.70;39.80;;;;;;10334712;28;20245;-73
2023/04/17 10:28:48;;;;;;;4.87;4.53;;;16.70;40.10;;;;;;10335801;28;20242;-73
2023/04/17 10:33:54;;;;;;;5.53;5.13;;;16.70;39.00;;;;;;10338543;28;20227;-73
2023/04/17 10:39:12;;;;;;;5.23;4.83;;;16.70;39.60;;;;;;10330357;28;20729;-71
2023/04/17 10:44:18;;;;;;;4.63;4.33;;;16.70;39.10;;;;;;10333430;28;20692;-69
2023/04/17 10:49:23;;;;;;;4.00;3.70;;;16.70;39.50;;;;;;10331002;28;20230;-69
2023/04/17 10:54:26;;;;;;;4.60;4.30;;;16.70;39.20;;;;;;10324770;28;20593;-69
2023/04/17 10:59:29;;;;;;;4.40;4.10;;;16.70;39.50;;;;;;10331615;28;20471;-69
2023/04/17 11:04:34;;;;;;;4.90;4.60;;;16.70;39.50;;;;;;10331110;28;20702;-68
2023/04/17 11:09:37;;;;;;;4.20;3.90;;;16.70;38.90;;;;;;10331582;28;20312;-69
2023/04/17 11:14:41;;;;;;;4.00;3.70;;;16.70;38.80;;;;;;10332596;28;20646;-69
2023/04/17 11:19:46;;;;;;;4.70;4.40;;;16.70;39.00;;;;;;10335047;28;20241;-69
2023/04/17 11:24:51;;;;;;;3.50;3.30;;;16.70;38.70;;;;;;10333914;28;20230;-69
2023/04/17 11:29:54;;;;;;;5.00;4.60;;;16.60;38.40;;;;;;10333704;28;20754;-69
2023/04/17 11:34:59;;;;;;;4.00;3.70;;;16.60;38.80;;;;;;10328294;28;20227;-69
2023/04/17 11:40:06;;;;;;;3.73;3.53;;;16.60;38.00;;;;;;10330807;28;20226;-69
2023/04/17 11:45:10;;;;;;;4.03;3.77;;;16.60;38.30;;;;;;10327240;28;20289;-69
2023/04/17 11:50:16;;;;;;;3.40;3.10;;;16.60;38.30;;;;;;10330307;28;20230;-67
2023/04/17 11:55:20;;;;;;;3.40;3.20;;;16.50;38.50;;;;;;10328192;28;20691;-69
2023/04/17 12:00:27;;;;;;;3.20;3.00;;;16.50;38.40;;;;;;10329066;28;20892;-69
2023/04/17 12:05:32;;;;;;;3.00;2.80;;;16.40;38.20;;;;;;10330052;28;20254;-69
2023/04/17 12:10:40;;;;;;;2.40;2.30;;;16.30;37.50;;;;;;10331683;28;20329;-69
2023/04/17 12:15:43;;;;;;;2.90;2.80;;;16.10;36.70;;;;;;10324847;28;20767;-69
2023/04/17 12:20:48;;;;;;;3.00;2.80;;;15.90;38.10;;;;;;10330870;28;20230;-69
2023/04/17 12:25:51;;;;;;;3.47;3.20;;;15.70;38.40;;;;;;10329198;28;20223;-69
2023/04/17 12:30:54;;;;;;;3.67;3.30;;;15.50;38.80;;;;;;10327900;28;20229;-68
2023/04/17 12:36:00;;;;;;;3.97;3.67;;;15.40;39.20;;;;;;10330292;28;20249;-68
2023/04/17 12:41:03;;;;;;;2.40;2.30;;;15.30;39.50;;;;;;10334457;28;20319;-70
2023/04/17 12:46:06;;;;;;;2.50;2.40;;;15.20;38.50;;;;;;10339588;28;21138;-69
2023/04/17 12:51:11;;;;;;;2.13;2.03;;;15.10;38.40;;;;;;10336728;28;20265;-69
2023/04/17 12:56:14;;;;;;;3.00;2.80;;;14.90;38.70;;;;;;10332460;28;20622;-69
2023/04/17 13:01:17;;;;;;;2.53;2.43;;;14.70;38.90;;;;;;10338312;28;20253;-70
2023/04/17 13:06:21;;;;;;;4.37;4.00;;;14.70;39.90;;;;;;10337066;28;20218;-69
2023/04/17 13:11:25;;;;;;;3.97;3.70;;;14.60;39.90;;;;;;10339354;28;20230;-69
2023/04/17 13:16:28;;;;;;;3.97;3.67;;;14.60;40.20;;;;;;10334137;28;20596;-71
2023/04/17 13:21:32;;;;;;;4.10;3.80;;;14.60;40.00;;;;;;10333330;28;20227;-74
2023/04/17 13:26:36;;;;;;;4.93;4.63;;;14.60;40.10;;;;;;10336652;28;20238;-74
2023/04/17 13:31:41;;;;;;;3.83;3.53;;;14.50;40.30;;;;;;10336745;28;20225;-74
2023/04/17 13:36:45;;;;;;;4.10;3.80;;;14.40;40.50;;;;;;10338396;28;20753;-74
2023/04/17 13:41:48;;;;;;;3.70;3.40;;;14.40;40.90;;;;;;10338380;28;20222;-74
2023/04/17 13:46:55;;;;;;;4.00;3.70;;;14.40;40.80;;;;;;10334891;28;20222;-74
2023/04/17 13:51:59;;;;;;;4.27;3.97;;;14.40;40.60;;;;;;10337034;28;20231;-75
2023/04/17 13:57:02;;;;;;;4.47;4.17;;;14.40;41.50;;;;;;10335546;28;20230;-74
2023/04/17 14:02:06;;;;;;;3.97;3.70;;;14.40;41.40;;;;;;10335346;28;21070;-75
2023/04/17 14:07:14;;;;;;;4.00;3.80;;;14.40;41.50;;;;;;10330773;28;20234;-75
2023/04/17 14:12:19;;;;;;;4.20;3.90;;;14.50;41.70;;;;;;10335269;28;20321;-73
2023/04/17 14:17:22;;;;;;;4.70;4.40;;;14.50;41.60;;;;;;10333537;28;20234;-76
2023/04/17 14:22:27;;;;;;;3.60;3.30;;;14.60;41.70;;;;;;10338410;28;20253;-76
2023/04/17 14:27:30;;;;;;;3.30;3.10;;;14.70;42.40;;;;;;10340033;28;20243;-76
2023/04/17 14:32:33;;;;;;;2.67;2.57;;;14.90;41.50;;;;;;10331779;28;20238;-74
2023/04/17 14:37:38;;;;;;;2.13;2.03;;;14.90;41.50;;;;;;10332238;28;20230;-69
2023/04/17 14:42:41;;;;;;;2.20;2.10;;;14.90;41.20;;;;;;10333458;28;20264;-73
2023/04/17 14:47:57;;;;;;;1.80;1.70;;;14.90;41.10;;;;;;10329000;28;20236;-73
2023/04/17 14:53:03;;;;;;;1.70;1.60;;;15.00;41.40;;;;;;10330436;28;20627;-74
2023/04/17 14:58:06;;;;;;;1.40;1.40;;;15.10;41.00;;;;;;10332269;28;20235;-69
2023/04/17 15:03:09;;;;;;;1.63;1.53;;;15.10;41.20;;;;;;10332637;28;20226;-70
2023/04/17 15:08:14;;;;;;;1.30;1.30;;;15.20;41.50;;;;;;10334588;28;20237;-70
2023/04/17 15:13:17;;;;;;;1.53;1.50;;;15.40;40.60;;;;;;10330096;28;20595;-69
2023/04/17 15:18:20;;;;;;;1.30;1.30;;;15.50;41.00;;;;;;10333675;28;20720;-69
2023/04/17 15:23:25;;;;;;;1.63;1.53;;;15.60;40.70;;;;;;10331862;28;20249;-69
2023/04/17 15:28:28;;;;;;;1.53;1.50;;;15.70;40.60;;;;;;10331526;28;20785;-73
2023/04/17 15:33:31;;;;;;;1.57;1.47;;;15.80;40.60;;;;;;10330981;28;20612;-73
2023/04/17 15:38:36;;;;;;;1.80;1.70;;;15.80;41.00;;;;;;10329436;28;20580;-73
2023/04/17 15:43:39;;;;;;;1.50;1.40;;;15.80;40.10;;;;;;10333674;28;20234;-72
2023/04/17 15:48:42;;;;;;;1.67;1.60;;;15.80;40.10;;;;;;10333634;28;20344;-75
2023/04/17 15:53:48;;;;;;;1.67;1.57;;;15.80;40.30;;;;;;10334524;28;20219;-73
2023/04/17 15:58:51;;;;;;;1.93;1.83;;;15.90;39.90;;;;;;10333240;28;20234;-75
2023/04/17 16:03:55;;;;;;;1.40;1.40;;;16.00;40.20;;;;;;10328044;28;20238;-75
2023/04/17 16:08:59;;;;;;;1.70;1.60;;;16.00;39.90;;;;;;10325385;28;20254;-75
2023/04/17 16:14:02;;;;;;;1.30;1.30;;;16.10;39.80;;;;;;10333281;28;20226;-74
2023/04/17 16:19:06;;;;;;;2.23;1.43;;;16.10;40.20;;;;;;10335767;28;20234;-75
2023/04/17 16:24:10;;;;;;;1.60;1.50;;;16.10;39.90;;;;;;10338776;28;20258;-74
2023/04/17 16:29:14;;;;;;;1.87;1.77;;;16.10;40.00;;;;;;10335747;28;20227;-71
2023/04/17 16:34:18;;;;;;;1.80;1.70;;;16.10;39.90;;;;;;10339742;28;20844;-72
2023/04/17 16:39:22;;;;;;;1.60;1.50;;;16.10;40.10;;;;;;10339228;28;20277;-72
2023/04/17 16:44:27;;;;;;;1.80;1.70;;;16.20;40.20;;;;;;10337117;28;20226;-72
2023/04/17 16:49:30;;;;;;;1.70;1.60;;;16.20;40.30;;;;;;10337952;28;20231;-74
2023/04/17 16:54:34;;;;;;;2.00;1.90;;;16.20;40.40;;;;;;10341143;28;20234;-71
2023/04/17 16:59:37;;;;;;;1.73;1.63;;;16.20;40.30;;;;;;10334925;28;20241;-68
2023/04/17 17:04:41;;;;;;;1.80;1.70;;;16.30;40.10;;;;;;10332529;28;20230;-68
2023/04/17 17:09:45;;;;;;;1.37;1.37;;;16.30;40.00;;;;;;10342881;28;20253;-68
2023/04/17 17:14:48;;;;;;;1.73;1.63;;;16.20;39.90;;;;;;10333333;28;20227;-69
2023/04/17 17:19:51;;;;;;;1.93;1.83;;;16.30;39.90;;;;;;10338170;28;20640;-68
2023/04/17 17:24:56;;;;;;;2.27;2.17;;;16.30;39.80;;;;;;10332761;28;20273;-67
2023/04/17 17:30:00;;;;;;;2.37;2.17;;;16.40;39.50;;;;;;10333275;28;20227;-68
2023/04/17 17:35:04;;;;;;;2.10;2.00;;;16.30;39.80;;;;;;10333501;28;20222;-72
2023/04/17 17:40:09;;;;;;;2.60;2.50;;;16.20;39.90;;;;;;10331522;28;20230;-71
2023/04/17 17:45:13;;;;;;;2.73;2.60;;;16.20;39.90;;;;;;10336214;28;20737;-69
2023/04/17 17:50:16;;;;;;;2.83;2.63;;;16.10;39.90;;;;;;10336278;28;20318;-70
2023/04/17 17:55:21;;;;;;;5.80;5.20;;;16.00;39.90;;;;;;10334059;28;20234;-69
2023/04/17 18:00:24;;;;;;;24.27;21.77;;;15.80;40.00;;;;;;10334458;28;20232;-68
2023/04/17 18:05:28;;;;;;;5.60;5.03;;;15.70;39.90;;;;;;10334669;28;20226;-76
2023/04/17 18:10:32;;;;;;;3.23;2.97;;;15.60;40.10;;;;;;10336576;28;20754;-72
2023/04/17 18:15:36;;;;;;;3.00;2.80;;;15.50;40.30;;;;;;10336919;28;20233;-70
2023/04/17 18:20:39;;;;;;;2.00;1.90;;;15.40;39.90;;;;;;10340397;28;20797;-70
2023/04/17 18:25:44;;;;;;;2.20;2.00;;;15.30;39.80;;;;;;10332000;28;20238;-70
2023/04/17 18:30:47;;;;;;;1.90;1.80;;;15.20;40.00;;;;;;10332426;28;20630;-70
2023/04/17 18:35:50;;;;;;;2.00;1.90;;;15.20;40.00;;;;;;10332607;28;20790;-70
2023/04/17 18:40:58;;;;;;;2.30;2.20;;;15.10;39.90;;;;;;10332225;28;20230;-70
2023/04/17 18:46:03;;;;;;;2.83;2.63;;;15.00;40.20;;;;;;10333262;28;20234;-70
2023/04/17 18:51:10;;;;;;;2.10;2.00;;;15.00;40.30;;;;;;10336090;28;20229;-70
2023/04/17 18:56:15;;;;;;;1.87;1.77;;;14.90;40.40;;;;;;10328619;28;20230;-70
2023/04/17 19:01:18;;;;;;;1.80;1.70;;;14.90;40.40;;;;;;10332953;28;20226;-70
2023/04/17 19:06:22;;;;;;;1.90;1.80;;;14.90;40.30;;;;;;10335603;28;20297;-70
2023/04/17 19:11:26;;;;;;;1.90;1.80;;;14.90;40.30;;;;;;10336398;28;20230;-70
2023/04/17 19:16:30;;;;;;;1.80;1.70;;;14.80;40.30;;;;;;10329041;28;20238;-70
2023/04/17 19:21:33;;;;;;;1.80;1.70;;;14.80;40.20;;;;;;10331820;28;20233;-70
2023/04/17 19:26:38;;;;;;;1.90;1.80;;;14.80;40.40;;;;;;10331912;28;20230;-70
2023/04/17 19:31:41;;;;;;;1.70;1.60;;;14.80;40.60;;;;;;10328509;28;20241;-69
2023/04/17 19:36:45;;;;;;;1.53;1.50;;;14.80;40.60;;;;;;10324439;28;20229;-69
2023/04/17 19:41:50;;;;;;;1.63;1.53;;;14.70;40.50;;;;;;10322110;28;20317;-70
2023/04/17 19:46:54;;;;;;;1.63;1.53;;;14.70;40.60;;;;;;10328088;28;20716;-70
2023/04/17 19:51:58;;;;;;;2.07;1.97;;;14.60;40.60;;;;;;10330867;28;20229;-70
2023/04/17 19:57:02;;;;;;;2.10;2.00;;;14.60;40.50;;;;;;10331910;28;20271;-71
2023/04/17 20:02:06;;;;;;;1.70;1.60;;;14.60;40.90;;;;;;10338557;28;20219;-71
2023/04/17 20:07:10;;;;;;;1.67;1.57;;;14.50;40.70;;;;;;10341493;28;20737;-71
2023/04/17 20:12:14;;;;;;;1.80;1.70;;;14.40;40.70;;;;;;10341464;28;20227;-70
2023/04/17 20:17:17;;;;;;;1.50;1.40;;;14.40;41.20;;;;;;10336901;28;20230;-70
2023/04/17 20:22:21;;;;;;;1.70;1.60;;;14.30;41.00;;;;;;10337498;28;20226;-70
2023/04/17 20:27:25;;;;;;;1.50;1.40;;;14.20;41.00;;;;;;10335573;28;20233;-70
2023/04/17 20:32:29;;;;;;;1.50;1.40;;;14.10;41.10;;;;;;10333162;28;20230;-70
2023/04/17 20:37:32;;;;;;;1.50;1.40;;;14.10;41.00;;;;;;10334568;28;20234;-71
2023/04/17 20:42:36;;;;;;;1.70;1.60;;;14.10;41.20;;;;;;10335974;28;20863;-70
2023/04/17 20:47:41;;;;;;;1.73;1.63;;;14.00;41.30;;;;;;10337602;28;20226;-70
2023/04/17 20:52:58;;;;;;;1.33;1.33;;;13.90;41.10;;;;;;10337409;28;20218;-70
2023/04/17 20:58:02;;;;;;;1.93;1.83;;;13.90;41.20;;;;;;10335309;28;20226;-70
2023/04/17 21:03:06;;;;;;;1.60;1.50;;;13.90;41.60;;;;;;10338454;28;20223;-70
2023/04/17 21:08:10;;;;;;;1.70;1.60;;;13.80;41.60;;;;;;10336792;28;20222;-70
2023/04/17 21:13:15;;;;;;;1.73;1.63;;;13.80;41.50;;;;;;10334200;28;20908;-70
2023/04/17 21:18:18;;;;;;;2.10;2.00;;;13.80;41.60;;;;;;10336504;28;20722;-68
2023/04/17 21:23:21;;;;;;;2.33;2.13;;;13.80;41.40;;;;;;10335527;28;20226;-68
2023/04/17 21:28:26;;;;;;;2.27;2.17;;;13.70;41.30;;;;;;10333868;28;20238;-69
2023/04/17 21:33:29;;;;;;;2.63;2.47;;;13.70;41.60;;;;;;10337674;28;20226;-68
2023/04/17 21:38:32;;;;;;;2.50;2.33;;;13.70;41.50;;;;;;10333086;28;20242;-68
2023/04/17 21:43:37;;;;;;;2.60;2.40;;;13.70;41.50;;;;;;10338587;28;20250;-68
2023/04/17 21:48:40;;;;;;;2.90;2.73;;;13.70;41.80;;;;;;10336827;28;20839;-67
2023/04/17 21:53:43;;;;;;;2.80;2.60;;;13.60;41.30;;;;;;10342934;28;20222;-67
2023/04/17 21:58:48;;;;;;;3.40;3.20;;;13.50;41.30;;;;;;10336798;28;20230;-68
2023/04/17 22:03:51;;;;;;;3.17;2.97;;;13.50;41.50;;;;;;10342426;28;20222;-68
2023/04/17 22:08:54;;;;;;;3.27;2.97;;;13.40;41.40;;;;;;10333436;28;20230;-68
2023/04/17 22:13:59;;;;;;;3.70;3.47;;;13.40;41.50;;;;;;10337387;28;20602;-68
2023/04/17 22:19:02;;;;;;;3.70;3.40;;;13.40;41.70;;;;;;10336794;28;20770;-70
2023/04/17 22:24:05;;;;;;;4.30;4.00;;;13.30;41.50;;;;;;10335909;28;20581;-70
2023/04/17 22:29:10;;;;;;;4.80;4.50;;;13.30;41.60;;;;;;10334035;28;20234;-70
2023/04/17 22:34:13;;;;;;;5.87;5.37;;;13.20;41.60;;;;;;10335030;28;21004;-69
2023/04/17 22:39:16;;;;;;;6.67;6.17;;;13.20;41.40;;;;;;10334547;28;20261;-70
2023/04/17 22:44:21;;;;;;;6.50;6.00;;;13.20;41.50;;;;;;10334097;28;20229;-70
2023/04/17 22:49:24;;;;;;;6.87;6.37;;;13.10;41.60;;;;;;10336373;28;20751;-69
2023/04/17 22:54:27;;;;;;;7.13;6.53;;;13.10;41.60;;;;;;10336336;28;20222;-70
2023/04/17 22:59:32;;;;;;;7.73;7.13;;;13.00;41.50;;;;;;10332785;28;20233;-69
2023/04/17 23:04:35;;;;;;;7.80;7.10;;;13.00;41.60;;;;;;10335330;28;20246;-70
2023/04/17 23:09:38;;;;;;;7.90;7.20;;;13.00;41.60;;;;;;10335187;28;20657;-69
2023/04/17 23:14:44;;;;;;;7.80;7.00;;;12.90;41.50;;;;;;10336599;28;20241;-70
2023/04/17 23:19:47;;;;;;;8.20;7.50;;;12.90;41.90;;;;;;10334224;28;20288;-69
2023/04/17 23:24:51;;;;;;;7.90;7.20;;;12.90;41.80;;;;;;10336530;28;20798;-69
2023/04/17 23:29:57;;;;;;;8.80;8.10;;;12.90;41.70;;;;;;10334409;28;20572;-70
2023/04/17 23:35:00;;;;;;;8.77;8.07;;;12.80;41.80;;;;;;10336587;28;20227;-70
2023/04/17 23:40:06;;;;;;;9.00;8.30;;;12.80;41.60;;;;;;10340155;28;20227;-70
2023/04/17 23:45:11;;;;;;;9.37;8.67;;;12.80;41.70;;;;;;10335964;28;20664;-70
2023/04/17 23:50:14;;;;;;;9.20;8.50;;;12.80;41.90;;;;;;10334699;28;20242;-69
2023/04/17 23:55:17;;;;;;;10.17;9.13;;;12.80;41.80;;;;;;10336935;28;20230;-69
